< < Back
Terminal Aerodrome Forecast


Current Version              Previous Versions:   1  2  3  4  5  6  7  8  9  

Terminal Aerodrome Forecast

506
FTUS42 KCAE 231700
TAFCAE
TAF
KCAE 231737Z 2318/2418 30006KT P6SM SKC
     FM240000 00000KT P6SM SCT250
     FM241500 VRB04KT P6SM BKN250=

Latest METAR

643
SAUS80 KWBC 232000
MTRCAE
METAR KCAE 231956Z VRB05KT 10SM CLR 22/03 A2999 RMK AO2 SLP154
T02170028


USA.gov is the U.S. government's official web portal to all federal, state and local government web resources and services.